createdAt,value
2023-03-02T00:01:50.499Z,98560.38
2023-03-02T00:04:20.992Z,98552.84
2023-03-02T00:06:51.677Z,98553.13
2023-03-02T00:09:19.588Z,98552.84
2023-03-02T00:11:47.290Z,98545.56
2023-03-02T00:14:14.883Z,98545.44
2023-03-02T00:16:42.341Z,98543.66
2023-03-02T00:19:09.860Z,98544.88
2023-03-02T00:21:37.374Z,98540.03
2023-03-02T00:24:05.236Z,98541.41
2023-03-02T00:26:36.348Z,98541.13
2023-03-02T00:29:04.611Z,98533.94
2023-03-02T00:31:32.181Z,98535.31
2023-03-02T00:34:00.409Z,98537.91
2023-03-02T00:36:27.876Z,98537.63
2023-03-02T00:38:55.548Z,98534.75
2023-03-02T00:41:23.422Z,98531.44
2023-03-02T00:43:51.620Z,98532.03
2023-03-02T00:46:22.612Z,98535.84
2023-03-02T00:48:51.002Z,98534.75
2023-03-02T00:51:19.217Z,98522.47
2023-03-02T00:53:47.048Z,98531.38
2023-03-02T00:56:14.852Z,98526.31
2023-03-02T00:58:47.937Z,98516.69
2023-03-02T01:01:18.499Z,98514.34
2023-03-02T01:03:49.325Z,98511.75
2023-03-02T01:06:19.448Z,98514.50
2023-03-02T01:08:47.200Z,98510.50
2023-03-02T01:11:20.925Z,98512.00
2023-03-02T01:13:49.414Z,98507.31
2023-03-02T01:16:18.154Z,98511.03
2023-03-02T01:18:45.803Z,98503.25
2023-03-02T01:21:15.926Z,98506.22
2023-03-02T01:23:44.406Z,98507.09
2023-03-02T01:26:12.306Z,98496.47
2023-03-02T01:28:39.907Z,98494.94
2023-03-02T01:31:07.384Z,98500.88
2023-03-02T01:33:34.990Z,98496.78
2023-03-02T01:36:02.647Z,98489.47
2023-03-02T01:38:30.312Z,98492.84
2023-03-02T01:40:58.132Z,98483.13
2023-03-02T01:43:25.750Z,98489.88
2023-03-02T01:45:59.572Z,98483.38
2023-03-02T01:48:52.998Z,98481.66
2023-03-02T01:51:46.160Z,98483.22
2023-03-02T01:54:23.255Z,98478.00
2023-03-02T01:57:00.218Z,98483.56
2023-03-02T01:59:31.624Z,98476.38
2023-03-02T02:02:03.784Z,98480.50
2023-03-02T02:04:33.525Z,98481.28
2023-03-02T02:07:04.634Z,98475.63
2023-03-02T02:09:41.720Z,98473.53
2023-03-02T02:12:14.653Z,98474.19
2023-03-02T02:14:43.152Z,98472.66
2023-03-02T02:17:11.619Z,98467.13
2023-03-02T02:20:00.732Z,98460.91
2023-03-02T02:22:46.223Z,98460.19
2023-03-02T02:25:31.851Z,98454.72
2023-03-02T02:27:59.885Z,98453.75
2023-03-02T02:30:28.054Z,98455.69
2023-03-02T02:32:56.983Z,98459.22
2023-03-02T02:35:27.554Z,98445.59
2023-03-02T02:38:01.536Z,98444.06
2023-03-02T02:40:41.176Z,98442.31
2023-03-02T02:43:16.149Z,98445.88
2023-03-02T02:45:44.911Z,98439.97
2023-03-02T02:48:17.441Z,98437.25
2023-03-02T02:50:46.075Z,98437.06
2023-03-02T02:53:19.578Z,98442.66
2023-03-02T02:55:48.952Z,98443.41
2023-03-02T02:58:30.556Z,98440.00
2023-03-02T03:00:59.659Z,98432.19
2023-03-02T03:03:37.506Z,98435.34
2023-03-02T03:06:14.321Z,98427.53
2023-03-02T03:08:41.881Z,98432.84
2023-03-02T03:11:19.530Z,98429.34
2023-03-02T03:13:47.412Z,98434.72
2023-03-02T03:16:16.273Z,98437.25
2023-03-02T03:18:47.284Z,98438.84
2023-03-02T03:21:18.518Z,98436.19
2023-03-02T03:23:46.362Z,98434.91
2023-03-02T03:26:13.945Z,98430.22
2023-03-02T03:28:41.589Z,98437.34
2023-03-02T03:31:09.434Z,98432.25
2023-03-02T03:33:37.016Z,98438.53
2023-03-02T03:36:04.984Z,98436.00
2023-03-02T03:38:33.029Z,98429.19
2023-03-02T03:41:00.715Z,98435.16
2023-03-02T03:43:28.500Z,98435.56
2023-03-02T03:45:57.658Z,98432.44
2023-03-02T03:48:25.353Z,98433.78
2023-03-02T03:50:53.923Z,98430.53
2023-03-02T03:53:21.578Z,98437.34
2023-03-02T03:55:50.679Z,98433.13
2023-03-02T03:58:18.738Z,98438.59
2023-03-02T04:00:47.835Z,98432.19
2023-03-02T04:03:15.722Z,98441.09
2023-03-02T04:05:43.396Z,98432.56
2023-03-02T04:08:11.608Z,98430.91
2023-03-02T04:10:40.540Z,98434.34
2023-03-02T04:13:08.594Z,98432.56
2023-03-02T04:15:36.896Z,98438.97
2023-03-02T04:18:04.508Z,98431.91
2023-03-02T04:20:33.119Z,98432.81
2023-03-02T04:23:00.780Z,98429.16
2023-03-02T04:25:30.216Z,98438.41
2023-03-02T04:28:09.248Z,98431.66
2023-03-02T04:30:39.483Z,98433.44
2023-03-02T04:33:07.525Z,98435.84
2023-03-02T04:35:36.319Z,98432.19
2023-03-02T04:38:04.541Z,98429.84
2023-03-02T04:40:32.113Z,98432.53
2023-03-02T04:42:59.621Z,98437.41
2023-03-02T04:45:27.075Z,98439.19
2023-03-02T04:47:54.608Z,98433.50
2023-03-02T04:50:22.604Z,98441.41
2023-03-02T04:52:50.607Z,98440.16
2023-03-02T04:55:23.938Z,98444.75
2023-03-02T04:57:51.445Z,98445.72
2023-03-02T05:00:21.161Z,98437.31
2023-03-02T05:02:48.741Z,98439.34
2023-03-02T05:05:20.324Z,98439.59
2023-03-02T05:07:48.106Z,98435.31
2023-03-02T05:10:17.433Z,98431.78
2023-03-02T05:12:58.275Z,98433.56
2023-03-02T05:15:28.915Z,98436.25
2023-03-02T05:17:57.470Z,98440.66
2023-03-02T05:20:27.728Z,98439.00
2023-03-02T05:22:57.009Z,98434.72
2023-03-02T05:25:25.902Z,98428.69
2023-03-02T05:27:53.724Z,98428.59
2023-03-02T05:30:22.857Z,98423.25
2023-03-02T05:32:52.528Z,98423.72
2023-03-02T05:35:22.067Z,98426.31
2023-03-02T05:41:38.087Z,98417.69
2023-03-02T05:44:09.530Z,98423.16
2023-03-02T05:46:37.954Z,98413.66
2023-03-02T05:49:05.596Z,98410.00
2023-03-02T05:51:33.237Z,98408.69
2023-03-02T05:54:01.170Z,98410.78
2023-03-02T05:56:28.720Z,98406.78
2023-03-02T05:58:56.222Z,98409.81
2023-03-02T06:01:23.772Z,98403.22
2023-03-02T06:03:51.252Z,98397.69
2023-03-02T06:06:18.951Z,98398.72
2023-03-02T06:08:46.495Z,98405.06
2023-03-02T06:11:14.015Z,98403.84
2023-03-02T06:13:41.475Z,98402.09
2023-03-02T06:16:09.968Z,98403.25
2023-03-02T06:18:40.384Z,98407.06
2023-03-02T06:21:09.181Z,98412.88
2023-03-02T06:23:36.680Z,98409.38
2023-03-02T06:26:11.907Z,98412.41
2023-03-02T06:28:51.390Z,98415.38
2023-03-02T06:31:21.074Z,98415.41
2023-03-02T06:33:48.551Z,98410.97
2023-03-02T06:36:17.249Z,98409.72
2023-03-02T06:38:45.180Z,98406.44
2023-03-02T06:41:12.706Z,98405.47
2023-03-02T06:43:40.159Z,98397.06
2023-03-02T06:46:07.842Z,98401.50
2023-03-02T06:48:35.277Z,98405.47
2023-03-02T06:51:03.153Z,98409.41
2023-03-02T06:53:30.648Z,98404.22
2023-03-02T06:55:58.266Z,98405.91
2023-03-02T06:58:25.693Z,98402.16
2023-03-02T07:00:53.707Z,98401.44
2023-03-02T07:03:21.230Z,98396.91
2023-03-02T07:05:49.266Z,98390.75
2023-03-02T07:08:16.738Z,98400.97
2023-03-02T07:10:44.192Z,98400.78
2023-03-02T07:13:11.652Z,98399.69
2023-03-02T07:15:40.054Z,98397.53
2023-03-02T07:18:07.882Z,98405.00
2023-03-02T07:20:35.388Z,98407.78
2023-03-02T07:23:05.739Z,98405.13
2023-03-02T07:25:33.460Z,98414.00
2023-03-02T07:28:00.920Z,98414.16
2023-03-02T07:30:28.532Z,98414.56
2023-03-02T07:32:55.982Z,98413.63
2023-03-02T07:35:23.623Z,98409.66
2023-03-02T07:37:52.681Z,98408.47
2023-03-02T07:40:20.244Z,98408.13
2023-03-02T07:42:47.929Z,98408.41
2023-03-02T07:45:17.127Z,98411.81
2023-03-02T07:47:44.710Z,98410.81
2023-03-02T07:50:12.502Z,98411.13
2023-03-02T07:52:40.038Z,98410.97
2023-03-02T07:55:07.982Z,98408.03
2023-03-02T07:57:35.464Z,98405.16
2023-03-02T08:00:04.638Z,98406.28
2023-03-02T08:02:40.818Z,98410.41
2023-03-02T08:05:09.620Z,98416.34
2023-03-02T08:07:37.458Z,98410.72
2023-03-02T08:10:05.673Z,98405.44
2023-03-02T08:12:33.143Z,98411.13
2023-03-02T08:15:02.158Z,98414.13
2023-03-02T08:17:30.648Z,98419.69
2023-03-02T08:19:58.114Z,98417.72
2023-03-02T08:22:25.657Z,98412.16
2023-03-02T08:24:53.214Z,98419.78
2023-03-02T08:27:20.760Z,98419.47
2023-03-02T08:29:48.384Z,98420.72
2023-03-02T08:32:15.973Z,98421.75
2023-03-02T08:34:43.478Z,98422.09
2023-03-02T08:37:11.007Z,98436.13
2023-03-02T08:39:39.310Z,98431.16
2023-03-02T08:42:06.894Z,98429.50
2023-03-02T08:44:34.377Z,98426.94
2023-03-02T08:47:01.881Z,98425.91
2023-03-02T08:49:29.436Z,98414.78
2023-03-02T08:51:59.015Z,98418.16
2023-03-02T08:54:27.319Z,98413.22
2023-03-02T08:56:54.884Z,98416.22
2023-03-02T08:59:22.540Z,98417.78
2023-03-02T09:01:50.007Z,98406.13
2023-03-02T09:04:17.704Z,98405.63
2023-03-02T09:06:45.877Z,98401.28
2023-03-02T09:09:15.315Z,98396.59
2023-03-02T09:11:43.680Z,98398.63
2023-03-02T09:14:11.232Z,98391.59
2023-03-02T09:16:39.243Z,98393.75
2023-03-02T09:19:06.949Z,98391.28
2023-03-02T09:21:34.773Z,98390.63
2023-03-02T09:24:02.430Z,98386.31
2023-03-02T09:26:29.992Z,98391.63
2023-03-02T09:28:58.014Z,98382.03
2023-03-02T09:31:25.506Z,98382.56
2023-03-02T09:33:53.153Z,98390.66
2023-03-02T09:36:23.191Z,98384.78
2023-03-02T09:38:50.957Z,98386.03
2023-03-02T09:41:21.508Z,98380.97
2023-03-02T09:44:12.283Z,98387.69
2023-03-02T09:46:44.391Z,98383.69
2023-03-02T09:49:59.315Z,98383.19
2023-03-02T09:52:36.994Z,98390.75
2023-03-02T09:55:13.458Z,98382.47
2023-03-02T09:57:42.243Z,98382.91
2023-03-02T10:00:19.424Z,98383.72
2023-03-02T10:02:50.679Z,98384.19
2023-03-02T10:05:29.653Z,98390.72
2023-03-02T10:07:59.313Z,98390.50
2023-03-02T10:10:47.310Z,98385.19
2023-03-02T10:13:18.166Z,98389.88
2023-03-02T10:16:26.906Z,98387.16
2023-03-02T10:19:07.988Z,98386.44
2023-03-02T10:21:43.007Z,98378.81
2023-03-02T10:24:40.795Z,98375.44
2023-03-02T10:27:26.253Z,98378.59
2023-03-02T10:30:06.651Z,98380.97
2023-03-02T10:32:42.348Z,98390.47
2023-03-02T10:35:19.503Z,98388.72
2023-03-02T10:37:48.395Z,98386.53
2023-03-02T10:40:49.653Z,98376.81
2023-03-02T10:43:37.221Z,98382.66
2023-03-02T10:46:07.918Z,98383.38
2023-03-02T10:48:56.354Z,98375.03
2023-03-02T10:51:34.493Z,98370.66
2023-03-02T10:54:15.778Z,98377.66
2023-03-02T10:56:49.351Z,98367.59
2023-03-02T10:59:26.285Z,98371.06
2023-03-02T11:02:01.129Z,98360.19
2023-03-02T11:04:30.375Z,98363.72
2023-03-02T11:07:15.230Z,98359.34
2023-03-02T11:09:43.336Z,98366.41
2023-03-02T11:12:18.222Z,98364.19
2023-03-02T11:14:45.739Z,98361.69
2023-03-02T11:17:35.313Z,98352.44
2023-03-02T11:20:04.741Z,98354.81
2023-03-02T11:22:41.315Z,98352.25
2023-03-02T11:25:21.862Z,98344.69
2023-03-02T11:27:55.433Z,98332.84
2023-03-02T11:30:27.189Z,98330.28
2023-03-02T11:33:08.543Z,98329.53
2023-03-02T11:35:52.772Z,98331.38
2023-03-02T11:38:30.517Z,98330.19
2023-03-02T11:41:06.280Z,98321.13
2023-03-02T11:43:33.973Z,98315.44
2023-03-02T11:46:10.815Z,98313.47
2023-03-02T11:48:49.261Z,98307.72
2023-03-02T11:51:24.146Z,98306.25
2023-03-02T11:54:29.115Z,98305.00
2023-03-02T11:56:56.604Z,98300.28
2023-03-02T11:59:27.512Z,98295.00
2023-03-02T12:01:57.571Z,98293.13
2023-03-02T12:04:36.178Z,98285.09
2023-03-02T12:07:26.038Z,98286.75
2023-03-02T12:10:24.570Z,98285.47
2023-03-02T12:13:07.136Z,98280.91
2023-03-02T12:15:41.831Z,98277.47
2023-03-02T12:18:21.494Z,98287.13
2023-03-02T12:21:00.360Z,98278.22
2023-03-02T12:23:28.587Z,98281.22
2023-03-02T12:26:09.301Z,98281.31
2023-03-02T12:28:39.889Z,98276.41
2023-03-02T12:31:13.190Z,98273.94
2023-03-02T12:33:47.629Z,98278.34
2023-03-02T12:36:31.858Z,98275.78
2023-03-02T12:39:28.646Z,98264.53
2023-03-02T12:42:14.001Z,98265.16
2023-03-02T12:45:15.092Z,98263.81
2023-03-02T12:47:48.211Z,98261.16
2023-03-02T12:50:23.569Z,98265.22
2023-03-02T12:53:02.619Z,98252.41
2023-03-02T12:55:30.777Z,98249.63
2023-03-02T12:58:01.350Z,98247.00
2023-03-02T13:00:31.889Z,98240.13
2023-03-02T13:03:07.306Z,98239.63
2023-03-02T13:05:36.209Z,98238.97
2023-03-02T13:08:05.994Z,98229.19
2023-03-02T13:10:40.607Z,98233.38
2023-03-02T13:13:21.032Z,98226.00
2023-03-02T13:15:51.390Z,98223.31
2023-03-02T13:18:21.401Z,98217.06
2023-03-02T13:20:50.931Z,98216.28
2023-03-02T13:23:19.780Z,98220.31
2023-03-02T13:25:53.254Z,98211.81
2023-03-02T13:28:36.542Z,98214.44
2023-03-02T13:31:05.540Z,98214.22
2023-03-02T13:33:36.213Z,98211.72
2023-03-02T13:36:04.222Z,98208.19
2023-03-02T13:38:37.126Z,98211.47
2023-03-02T13:41:04.973Z,98203.84
2023-03-02T13:43:38.453Z,98207.22
2023-03-02T13:46:36.770Z,98207.41
2023-03-02T13:49:10.621Z,98206.88
2023-03-02T13:51:47.796Z,98200.00
2023-03-02T13:54:22.381Z,98206.66
2023-03-02T13:56:51.457Z,98199.88
2023-03-02T13:59:21.309Z,98201.16
2023-03-02T14:01:49.469Z,98191.38
2023-03-02T14:04:23.591Z,98187.50
2023-03-02T14:06:53.168Z,98195.16
2023-03-02T14:09:21.450Z,98194.91
2023-03-02T14:11:53.146Z,98188.66
2023-03-02T14:14:26.584Z,98188.09
2023-03-02T14:16:54.214Z,98187.47
2023-03-02T14:19:21.815Z,98186.66
2023-03-02T14:21:49.390Z,98190.88
2023-03-02T14:24:17.235Z,98180.28
2023-03-02T14:26:48.056Z,98169.72
2023-03-02T14:29:25.072Z,98170.69
2023-03-02T14:31:57.107Z,98175.00
2023-03-02T14:34:24.689Z,98174.88
2023-03-02T14:36:59.599Z,98166.47
2023-03-02T14:39:45.792Z,98160.78
2023-03-02T14:42:16.163Z,98160.91
2023-03-02T14:44:45.328Z,98165.94
2023-03-02T14:47:13.453Z,98162.69
2023-03-02T14:49:40.881Z,98160.22
2023-03-02T14:52:08.402Z,98160.59
2023-03-02T14:54:43.858Z,98163.84
2023-03-02T14:57:20.693Z,98157.03
2023-03-02T14:59:49.098Z,98163.09
2023-03-02T15:02:25.204Z,98154.31
2023-03-02T15:04:57.299Z,98151.44
2023-03-02T15:07:28.085Z,98155.44
2023-03-02T15:09:57.764Z,98154.00
2023-03-02T15:12:25.706Z,98151.75
2023-03-02T15:14:53.332Z,98147.28
2023-03-02T15:17:21.015Z,98153.13
2023-03-02T15:19:48.638Z,98156.13
2023-03-02T15:22:16.361Z,98150.56
2023-03-02T15:24:44.158Z,98152.16
2023-03-02T15:27:11.762Z,98152.97
2023-03-02T15:29:42.558Z,98150.50
2023-03-02T15:32:10.181Z,98148.06
2023-03-02T15:34:37.658Z,98148.81
2023-03-02T15:37:05.127Z,98149.19
2023-03-02T15:39:34.092Z,98148.28
2023-03-02T15:42:01.744Z,98139.91
2023-03-02T15:44:29.817Z,98147.22
2023-03-02T15:46:59.584Z,98143.13
2023-03-02T15:49:29.432Z,98146.59
2023-03-02T15:51:57.753Z,98142.91
2023-03-02T15:54:26.644Z,98133.47
2023-03-02T15:56:54.336Z,98137.06
2023-03-02T15:59:27.459Z,98134.22
2023-03-02T16:01:59.588Z,98135.22
2023-03-02T16:04:28.873Z,98137.59
2023-03-02T16:06:57.262Z,98131.50
2023-03-02T16:09:26.117Z,98132.75
2023-03-02T16:11:53.624Z,98134.78
2023-03-02T16:14:21.144Z,98138.78
2023-03-02T16:16:48.865Z,98134.88
2023-03-02T16:19:19.082Z,98135.25
2023-03-02T16:21:48.051Z,98141.91
2023-03-02T16:24:17.225Z,98144.91
2023-03-02T16:26:45.322Z,98147.06
2023-03-02T16:29:14.042Z,98148.09
2023-03-02T16:31:45.221Z,98148.66
2023-03-02T16:34:13.226Z,98155.94
2023-03-02T16:36:41.334Z,98152.63
2023-03-02T16:39:10.821Z,98156.81
2023-03-02T16:41:43.482Z,98152.56
2023-03-02T16:44:12.534Z,98163.31
2023-03-02T16:46:42.071Z,98158.38
2023-03-02T16:49:11.217Z,98159.38
2023-03-02T16:51:39.551Z,98163.03
2023-03-02T16:54:16.316Z,98159.94
2023-03-02T16:56:47.609Z,98160.09
2023-03-02T16:59:15.720Z,98167.03
2023-03-02T17:01:43.616Z,98159.56
2023-03-02T17:04:22.155Z,98163.31
2023-03-02T17:07:03.656Z,98168.22
2023-03-02T17:09:34.390Z,98169.41
2023-03-02T17:12:02.018Z,98172.41
2023-03-02T17:14:29.476Z,98173.13
2023-03-02T17:16:57.115Z,98177.47
2023-03-02T17:19:26.957Z,98181.94
2023-03-02T17:21:57.295Z,98178.44
2023-03-02T17:24:24.857Z,98179.22
2023-03-02T17:26:52.329Z,98185.06
2023-03-02T17:29:20.556Z,98176.44
2023-03-02T17:31:48.035Z,98173.41
2023-03-02T17:34:15.895Z,98172.56
2023-03-02T17:36:43.446Z,98172.75
2023-03-02T17:39:11.021Z,98170.19
2023-03-02T17:41:38.507Z,98175.13
2023-03-02T17:44:06.302Z,98179.47
2023-03-02T17:46:33.855Z,98182.59
2023-03-02T17:49:01.525Z,98179.22
2023-03-02T17:51:29.853Z,98176.44
2023-03-02T17:53:57.459Z,98174.44
2023-03-02T17:56:27.565Z,98173.25
2023-03-02T17:58:57.367Z,98174.53
2023-03-02T18:01:25.303Z,98173.19
2023-03-02T18:03:52.873Z,98177.19
2023-03-02T18:06:21.018Z,98168.16
2023-03-02T18:08:50.352Z,98173.28
2023-03-02T18:11:20.353Z,98178.25
2023-03-02T18:13:48.685Z,98171.28
2023-03-02T18:16:16.270Z,98180.44
2023-03-02T18:18:43.955Z,98180.00
2023-03-02T18:21:11.438Z,98174.81
2023-03-02T18:23:39.938Z,98179.13
2023-03-02T18:26:07.494Z,98177.66
2023-03-02T18:28:35.034Z,98189.19
2023-03-02T18:31:02.600Z,98189.22
2023-03-02T18:33:30.377Z,98188.41
2023-03-02T18:35:58.526Z,98191.69
2023-03-02T18:38:30.965Z,98196.63
2023-03-02T18:41:00.902Z,98197.78
2023-03-02T18:43:29.387Z,98194.31
2023-03-02T18:45:57.874Z,98195.31
2023-03-02T18:48:25.440Z,98200.56
2023-03-02T18:50:53.025Z,98194.66
2023-03-02T18:53:21.006Z,98190.72
2023-03-02T18:55:48.948Z,98197.28
2023-03-02T18:58:19.778Z,98196.97
2023-03-02T19:00:47.769Z,98195.47
2023-03-02T19:03:16.590Z,98205.19
2023-03-02T19:05:44.745Z,98198.09
2023-03-02T19:08:12.741Z,98196.28
2023-03-02T19:10:42.420Z,98195.47
2023-03-02T19:13:11.802Z,98208.78
2023-03-02T19:15:40.758Z,98198.44
2023-03-02T19:18:08.702Z,98202.03
2023-03-02T19:20:36.372Z,98209.41
2023-03-02T19:23:03.917Z,98208.78
2023-03-02T19:25:31.486Z,98204.81
2023-03-02T19:27:59.009Z,98210.88
2023-03-02T19:30:27.788Z,98215.66
2023-03-02T19:32:55.480Z,98219.41
2023-03-02T19:35:25.893Z,98207.47
2023-03-02T19:37:53.498Z,98214.50
2023-03-02T19:40:24.713Z,98218.13
2023-03-02T19:42:53.283Z,98205.47
2023-03-02T19:45:23.891Z,98215.47
2023-03-02T19:47:51.422Z,98213.03
2023-03-02T19:50:20.384Z,98208.56
2023-03-02T19:52:48.285Z,98212.38
2023-03-02T19:55:16.622Z,98214.63
2023-03-02T19:57:44.794Z,98225.13
2023-03-02T20:00:15.523Z,98220.19
2023-03-02T20:02:45.252Z,98231.97
2023-03-02T20:05:12.989Z,98226.41
2023-03-02T20:07:41.837Z,98222.31
2023-03-02T20:10:10.746Z,98225.44
2023-03-02T20:12:38.256Z,98226.91
2023-03-02T20:15:06.826Z,98232.66
2023-03-02T20:17:34.330Z,98231.34
2023-03-02T20:20:03.694Z,98234.16
2023-03-02T20:22:31.188Z,98236.31
2023-03-02T20:24:58.818Z,98233.22
2023-03-02T20:27:26.431Z,98232.69
2023-03-02T20:29:53.926Z,98237.44
2023-03-02T20:32:21.838Z,98231.34
2023-03-02T20:34:49.453Z,98235.78
2023-03-02T20:37:17.053Z,98248.09
2023-03-02T20:39:48.444Z,98244.63
2023-03-02T20:42:15.990Z,98251.16
2023-03-02T20:44:43.544Z,98242.47
2023-03-02T20:47:15.294Z,98246.69
2023-03-02T20:49:43.157Z,98256.38
2023-03-02T20:52:11.773Z,98257.50
2023-03-02T20:54:42.658Z,98252.75
2023-03-02T20:57:17.896Z,98260.25
2023-03-02T20:59:47.074Z,98257.13
2023-03-02T21:02:17.677Z,98251.88
2023-03-02T21:04:47.100Z,98248.44
2023-03-02T21:07:15.499Z,98253.69
2023-03-02T21:09:44.523Z,98243.69
2023-03-02T21:12:12.561Z,98246.50
2023-03-02T21:14:40.999Z,98245.97
2023-03-02T21:17:09.869Z,98241.84
2023-03-02T21:19:37.618Z,98241.19
2023-03-02T21:22:05.331Z,98240.69
2023-03-02T21:24:32.870Z,98239.84
2023-03-02T21:27:01.478Z,98242.63
2023-03-02T21:29:29.235Z,98239.34
2023-03-02T21:31:56.848Z,98236.72
2023-03-02T21:34:24.636Z,98230.50
2023-03-02T21:36:53.636Z,98231.63
2023-03-02T21:39:23.772Z,98240.13
2023-03-02T21:41:52.896Z,98243.22
2023-03-02T21:44:20.770Z,98243.22
2023-03-02T21:46:48.967Z,98240.75
2023-03-02T21:49:21.544Z,98237.56
2023-03-02T21:51:50.003Z,98233.31
2023-03-02T21:54:17.495Z,98230.38
2023-03-02T21:56:45.309Z,98223.16
2023-03-02T21:59:14.255Z,98224.91
2023-03-02T22:01:41.776Z,98225.00
2023-03-02T22:04:09.546Z,98226.53
2023-03-02T22:06:37.810Z,98234.50
2023-03-02T22:09:05.551Z,98225.06
2023-03-02T22:11:37.626Z,98227.66
2023-03-02T22:14:13.879Z,98227.56
2023-03-02T22:16:43.353Z,98230.13
2023-03-02T22:19:28.183Z,98236.13
2023-03-02T22:21:57.426Z,98230.66
2023-03-02T22:24:27.981Z,98236.63
2023-03-02T22:27:16.902Z,98234.47
2023-03-02T22:29:46.444Z,98232.75
2023-03-02T22:32:49.330Z,98230.72
2023-03-02T22:35:24.493Z,98225.91
2023-03-02T22:38:00.088Z,98224.56
2023-03-02T22:40:33.400Z,98226.94
2023-03-02T22:43:26.181Z,98235.69
2023-03-02T22:45:54.135Z,98237.22
2023-03-02T22:48:25.609Z,98239.47
2023-03-02T22:50:53.213Z,98237.97
2023-03-02T22:53:38.287Z,98239.06
2023-03-02T22:56:26.100Z,98237.56
2023-03-02T22:58:54.455Z,98236.06
2023-03-02T23:01:26.946Z,98237.16
2023-03-02T23:04:05.755Z,98226.97
2023-03-02T23:06:45.267Z,98225.47
2023-03-02T23:09:17.039Z,98236.91
2023-03-02T23:11:45.621Z,98229.50
2023-03-02T23:14:19.399Z,98231.44
2023-03-02T23:16:50.796Z,98229.25
2023-03-02T23:19:18.394Z,98231.59
2023-03-02T23:21:47.945Z,98229.28
2023-03-02T23:24:15.643Z,98228.91
2023-03-02T23:26:43.120Z,98226.41
2023-03-02T23:29:10.791Z,98230.66
2023-03-02T23:31:38.717Z,98233.16
2023-03-02T23:34:06.614Z,98236.59
2023-03-02T23:36:34.141Z,98233.00
2023-03-02T23:39:01.700Z,98233.28
2023-03-02T23:41:29.518Z,98223.97
2023-03-02T23:43:57.343Z,98228.78
2023-03-02T23:46:25.560Z,98222.84
2023-03-02T23:48:53.353Z,98216.97
2023-03-02T23:51:20.847Z,98217.25
2023-03-02T23:53:48.552Z,98216.56
2023-03-02T23:56:16.031Z,98220.28
2023-03-02T23:58:43.735Z,98219.47
